ADDS METAR Data INFO
IDs: Format: Raw Decoded Include TAF

Data at: 0203 UTC 26 Apr 2017

METAR for:KDRT (Del Rio Intl, TX, US)
Text:KDRT 260153Z AUTO 06004KT 10SM CLR 27/18 A2942 RMK AO2 SLP946 T02670178
Temperature: 26.7°C ( 80°F)
Dewpoint: 17.8°C ( 64°F) [RH = 58%]
Pressure (altimeter):29.42 inches Hg ( 996.4 mb) [Sea level pressure: 994.6 mb]
Winds:from the ENE (60 degrees) at 5 MPH (4 knots; 2.1 m/s)
Visibility:10 or more sm (16+ km)
Ceiling:at least 12,000 feet AGL
Clouds:sky clear below 12,000 feet AGL
QC Flag:automated observation with no human augmentation


Page loaded:  02:03 UTC  |   07:03 PM Pacific  |   08:03 PM Mountain  |   09:03 PM Central  |   10:03 PM Eastern

 

ADVISORIES

FORECASTS

FORECASTS

OBSERVATIONS

USER TOOLS

ABOUT US